sensor_id;sensor_type;location;lat;lon;timestamp;P1;durP1;ratioP1;P2;durP2;ratioP2
23185;SDS011;11761;51.324;4.590;2022-12-07T00:01:27;11.50;;;4.90;;
23185;SDS011;11761;51.324;4.590;2022-12-07T00:03:55;7.95;;;4.32;;
23185;SDS011;11761;51.324;4.590;2022-12-07T00:06:33;8.77;;;4.60;;
23185;SDS011;11761;51.324;4.590;2022-12-07T00:09:00;6.63;;;3.60;;
23185;SDS011;11761;51.324;4.590;2022-12-07T00:11:27;7.05;;;3.78;;
23185;SDS011;11761;51.324;4.590;2022-12-07T00:13:54;6.88;;;3.85;;
23185;SDS011;11761;51.324;4.590;2022-12-07T00:16:22;6.72;;;3.75;;
23185;SDS011;11761;51.324;4.590;2022-12-07T00:18:50;7.25;;;4.05;;
23185;SDS011;11761;51.324;4.590;2022-12-07T00:21:17;7.10;;;3.88;;
23185;SDS011;11761;51.324;4.590;2022-12-07T00:23:45;6.18;;;3.42;;
23185;SDS011;11761;51.324;4.590;2022-12-07T00:26:14;12.60;;;4.05;;
23185;SDS011;11761;51.324;4.590;2022-12-07T00:28:53;6.93;;;3.60;;
23185;SDS011;11761;51.324;4.590;2022-12-07T00:31:25;6.13;;;3.45;;
23185;SDS011;11761;51.324;4.590;2022-12-07T00:33:52;4.28;;;2.63;;
23185;SDS011;11761;51.324;4.590;2022-12-07T00:36:20;4.82;;;2.70;;
23185;SDS011;11761;51.324;4.590;2022-12-07T00:38:47;4.97;;;2.85;;
23185;SDS011;11761;51.324;4.590;2022-12-07T00:41:15;6.47;;;3.10;;
23185;SDS011;11761;51.324;4.590;2022-12-07T00:43:46;6.05;;;2.83;;
23185;SDS011;11761;51.324;4.590;2022-12-07T00:46:13;5.15;;;3.10;;
23185;SDS011;11761;51.324;4.590;2022-12-07T00:48:40;4.10;;;2.50;;
23185;SDS011;11761;51.324;4.590;2022-12-07T00:51:07;4.13;;;2.78;;
23185;SDS011;11761;51.324;4.590;2022-12-07T00:53:34;5.50;;;2.80;;
23185;SDS011;11761;51.324;4.590;2022-12-07T00:56:16;6.05;;;2.88;;
23185;SDS011;11761;51.324;4.590;2022-12-07T00:58:52;4.40;;;2.67;;
23185;SDS011;11761;51.324;4.590;2022-12-07T01:01:22;4.70;;;3.00;;
23185;SDS011;11761;51.324;4.590;2022-12-07T01:03:49;4.90;;;2.80;;
23185;SDS011;11761;51.324;4.590;2022-12-07T01:06:16;3.92;;;2.38;;
23185;SDS011;11761;51.324;4.590;2022-12-07T01:08:43;5.10;;;2.83;;
23185;SDS011;11761;51.324;4.590;2022-12-07T01:11:12;4.38;;;2.85;;
23185;SDS011;11761;51.324;4.590;2022-12-07T01:13:40;6.38;;;2.83;;
23185;SDS011;11761;51.324;4.590;2022-12-07T01:16:07;4.28;;;2.50;;
23185;SDS011;11761;51.324;4.590;2022-12-07T01:18:35;6.80;;;2.58;;
23185;SDS011;11761;51.324;4.590;2022-12-07T01:21:03;4.65;;;2.97;;
23185;SDS011;11761;51.324;4.590;2022-12-07T01:23:35;5.88;;;2.67;;
23185;SDS011;11761;51.324;4.590;2022-12-07T01:26:03;4.97;;;2.90;;
23185;SDS011;11761;51.324;4.590;2022-12-07T01:28:31;5.45;;;2.80;;
23185;SDS011;11761;51.324;4.590;2022-12-07T01:30:58;5.55;;;3.20;;
23185;SDS011;11761;51.324;4.590;2022-12-07T01:33:33;7.43;;;2.92;;
23185;SDS011;11761;51.324;4.590;2022-12-07T01:36:43;4.63;;;2.65;;
23185;SDS011;11761;51.324;4.590;2022-12-07T01:38:51;4.55;;;2.65;;
23185;SDS011;11761;51.324;4.590;2022-12-07T01:41:22;5.93;;;2.67;;
23185;SDS011;11761;51.324;4.590;2022-12-07T01:46:35;5.00;;;2.65;;
23185;SDS011;11761;51.324;4.590;2022-12-07T01:49:01;3.75;;;2.40;;
23185;SDS011;11761;51.324;4.590;2022-12-07T01:51:31;4.07;;;2.55;;
23185;SDS011;11761;51.324;4.590;2022-12-07T01:53:57;5.82;;;2.72;;
23185;SDS011;11761;51.324;4.590;2022-12-07T01:56:25;6.28;;;2.55;;
23185;SDS011;11761;51.324;4.590;2022-12-07T01:58:53;5.07;;;2.67;;
23185;SDS011;11761;51.324;4.590;2022-12-07T02:01:21;4.32;;;2.55;;
23185;SDS011;11761;51.324;4.590;2022-12-07T02:03:48;4.63;;;2.80;;
23185;SDS011;11761;51.324;4.590;2022-12-07T02:06:16;4.35;;;2.42;;
23185;SDS011;11761;51.324;4.590;2022-12-07T02:08:46;3.88;;;2.55;;
23185;SDS011;11761;51.324;4.590;2022-12-07T02:11:12;5.28;;;2.50;;
23185;SDS011;11761;51.324;4.590;2022-12-07T02:13:39;4.35;;;2.92;;
23185;SDS011;11761;51.324;4.590;2022-12-07T02:21:38;7.43;;;2.92;;
23185;SDS011;11761;51.324;4.590;2022-12-07T02:30:00;5.60;;;3.60;;
23185;SDS011;11761;51.324;4.590;2022-12-07T02:38:18;5.60;;;3.10;;
23185;SDS011;11761;51.324;4.590;2022-12-07T02:40:59;4.00;;;2.60;;
23185;SDS011;11761;51.324;4.590;2022-12-07T02:43:52;5.15;;;2.55;;
23185;SDS011;11761;51.324;4.590;2022-12-07T02:46:21;5.50;;;2.83;;
23185;SDS011;11761;51.324;4.590;2022-12-07T02:48:54;7.45;;;3.25;;
23185;SDS011;11761;51.324;4.590;2022-12-07T02:51:21;5.10;;;2.47;;
23185;SDS011;11761;51.324;4.590;2022-12-07T02:53:48;4.00;;;2.45;;
23185;SDS011;11761;51.324;4.590;2022-12-07T02:59:41;3.97;;;2.50;;
23185;SDS011;11761;51.324;4.590;2022-12-07T03:02:25;2.88;;;1.92;;
23185;SDS011;11761;51.324;4.590;2022-12-07T03:18:32;7.93;;;2.80;;
23185;SDS011;11761;51.324;4.590;2022-12-07T03:21:09;5.38;;;2.63;;
23185;SDS011;11761;51.324;4.590;2022-12-07T03:23:38;6.05;;;2.58;;
23185;SDS011;11761;51.324;4.590;2022-12-07T03:26:08;6.53;;;2.58;;
23185;SDS011;11761;51.324;4.590;2022-12-07T03:28:38;7.28;;;2.65;;
23185;SDS011;11761;51.324;4.590;2022-12-07T03:33:51;5.00;;;2.10;;
23185;SDS011;11761;51.324;4.590;2022-12-07T03:39:57;6.60;;;3.10;;
23185;SDS011;11761;51.324;4.590;2022-12-07T03:42:26;8.75;;;2.47;;
23185;SDS011;11761;51.324;4.590;2022-12-07T03:44:52;4.65;;;2.40;;
23185;SDS011;11761;51.324;4.590;2022-12-07T03:47:33;3.78;;;2.20;;
23185;SDS011;11761;51.324;4.590;2022-12-07T03:50:31;5.93;;;3.28;;
23185;SDS011;11761;51.324;4.590;2022-12-07T03:53:07;4.22;;;2.70;;
23185;SDS011;11761;51.324;4.590;2022-12-07T03:55:37;6.28;;;2.97;;
23185;SDS011;11761;51.324;4.590;2022-12-07T03:58:09;4.63;;;2.67;;
23185;SDS011;11761;51.324;4.590;2022-12-07T04:00:37;4.78;;;2.72;;
23185;SDS011;11761;51.324;4.590;2022-12-07T04:03:03;5.90;;;2.55;;
23185;SDS011;11761;51.324;4.590;2022-12-07T04:05:29;3.80;;;2.53;;
23185;SDS011;11761;51.324;4.590;2022-12-07T04:07:56;5.60;;;2.95;;
23185;SDS011;11761;51.324;4.590;2022-12-07T04:10:22;4.80;;;2.88;;
23185;SDS011;11761;51.324;4.590;2022-12-07T04:12:48;7.15;;;2.53;;
23185;SDS011;11761;51.324;4.590;2022-12-07T04:15:14;3.33;;;2.22;;
23185;SDS011;11761;51.324;4.590;2022-12-07T04:17:40;5.07;;;2.58;;
23185;SDS011;11761;51.324;4.590;2022-12-07T04:20:07;3.30;;;1.95;;
23185;SDS011;11761;51.324;4.590;2022-12-07T04:22:33;2.95;;;2.10;;
23185;SDS011;11761;51.324;4.590;2022-12-07T04:24:59;5.05;;;2.40;;
23185;SDS011;11761;51.324;4.590;2022-12-07T04:27:26;3.95;;;2.50;;
23185;SDS011;11761;51.324;4.590;2022-12-07T04:29:52;6.20;;;2.80;;
23185;SDS011;11761;51.324;4.590;2022-12-07T04:32:18;4.35;;;2.28;;
23185;SDS011;11761;51.324;4.590;2022-12-07T04:34:44;5.28;;;2.70;;
23185;SDS011;11761;51.324;4.590;2022-12-07T04:37:10;5.38;;;2.45;;
23185;SDS011;11761;51.324;4.590;2022-12-07T04:39:36;3.17;;;1.90;;
23185;SDS011;11761;51.324;4.590;2022-12-07T04:42:02;3.28;;;2.40;;
23185;SDS011;11761;51.324;4.590;2022-12-07T04:44:29;4.13;;;2.10;;
23185;SDS011;11761;51.324;4.590;2022-12-07T04:46:56;7.65;;;2.33;;
23185;SDS011;11761;51.324;4.590;2022-12-07T04:49:22;3.42;;;2.00;;
23185;SDS011;11761;51.324;4.590;2022-12-07T04:51:49;3.95;;;2.20;;
23185;SDS011;11761;51.324;4.590;2022-12-07T04:54:16;3.35;;;1.98;;
23185;SDS011;11761;51.324;4.590;2022-12-07T04:56:43;3.30;;;2.30;;
23185;SDS011;11761;51.324;4.590;2022-12-07T04:59:10;4.25;;;2.13;;
23185;SDS011;11761;51.324;4.590;2022-12-07T05:01:37;6.18;;;2.08;;
23185;SDS011;11761;51.324;4.590;2022-12-07T05:04:03;5.15;;;2.20;;
23185;SDS011;11761;51.324;4.590;2022-12-07T05:06:29;4.22;;;2.30;;
23185;SDS011;11761;51.324;4.590;2022-12-07T05:08:56;3.70;;;2.20;;
23185;SDS011;11761;51.324;4.590;2022-12-07T05:11:22;3.17;;;1.80;;
23185;SDS011;11761;51.324;4.590;2022-12-07T05:16:40;2.47;;;1.92;;
23185;SDS011;11761;51.324;4.590;2022-12-07T05:19:07;3.45;;;2.13;;
23185;SDS011;11761;51.324;4.590;2022-12-07T05:21:34;3.85;;;2.10;;
23185;SDS011;11761;51.324;4.590;2022-12-07T05:24:01;3.35;;;1.98;;
23185;SDS011;11761;51.324;4.590;2022-12-07T05:26:27;2.95;;;1.92;;
23185;SDS011;11761;51.324;4.590;2022-12-07T05:28:54;4.57;;;2.05;;
23185;SDS011;11761;51.324;4.590;2022-12-07T05:31:21;4.32;;;2.13;;
23185;SDS011;11761;51.324;4.590;2022-12-07T05:33:48;4.45;;;2.00;;
23185;SDS011;11761;51.324;4.590;2022-12-07T05:36:14;2.65;;;1.73;;
23185;SDS011;11761;51.324;4.590;2022-12-07T05:38:40;3.05;;;1.70;;
23185;SDS011;11761;51.324;4.590;2022-12-07T05:41:07;5.70;;;1.98;;
23185;SDS011;11761;51.324;4.590;2022-12-07T05:43:55;5.25;;;1.75;;
23185;SDS011;11761;51.324;4.590;2022-12-07T05:46:21;3.38;;;1.52;;
23185;SDS011;11761;51.324;4.590;2022-12-07T05:48:47;2.90;;;1.63;;
23185;SDS011;11761;51.324;4.590;2022-12-07T05:51:14;6.95;;;2.53;;
23185;SDS011;11761;51.324;4.590;2022-12-07T05:53:40;4.43;;;2.10;;
23185;SDS011;11761;51.324;4.590;2022-12-07T05:56:06;4.78;;;2.35;;
23185;SDS011;11761;51.324;4.590;2022-12-07T05:58:32;4.53;;;2.20;;
23185;SDS011;11761;51.324;4.590;2022-12-07T06:01:17;3.67;;;2.00;;
23185;SDS011;11761;51.324;4.590;2022-12-07T06:03:43;4.30;;;2.08;;
23185;SDS011;11761;51.324;4.590;2022-12-07T06:06:11;3.35;;;1.95;;
23185;SDS011;11761;51.324;4.590;2022-12-07T06:08:37;7.05;;;2.33;;
23185;SDS011;11761;51.324;4.590;2022-12-07T06:11:03;3.20;;;1.92;;
23185;SDS011;11761;51.324;4.590;2022-12-07T06:13:48;4.25;;;2.30;;
23185;SDS011;11761;51.324;4.590;2022-12-07T06:16:14;8.10;;;4.10;;
23185;SDS011;11761;51.324;4.590;2022-12-07T06:18:40;6.85;;;3.70;;
23185;SDS011;11761;51.324;4.590;2022-12-07T06:21:06;12.35;;;4.38;;
23185;SDS011;11761;51.324;4.590;2022-12-07T06:23:32;6.93;;;3.80;;
23185;SDS011;11761;51.324;4.590;2022-12-07T06:25:58;10.00;;;4.35;;
23185;SDS011;11761;51.324;4.590;2022-12-07T06:28:24;6.38;;;3.78;;
23185;SDS011;11761;51.324;4.590;2022-12-07T06:30:57;9.32;;;4.30;;
23185;SDS011;11761;51.324;4.590;2022-12-07T06:33:24;10.20;;;4.88;;
23185;SDS011;11761;51.324;4.590;2022-12-07T06:35:51;9.18;;;4.43;;
23185;SDS011;11761;51.324;4.590;2022-12-07T06:38:17;9.57;;;4.40;;
23185;SDS011;11761;51.324;4.590;2022-12-07T06:40:43;12.45;;;4.88;;
23185;SDS011;11761;51.324;4.590;2022-12-07T06:43:09;8.68;;;4.47;;
23185;SDS011;11761;51.324;4.590;2022-12-07T06:45:35;8.15;;;4.03;;
23185;SDS011;11761;51.324;4.590;2022-12-07T06:48:01;11.02;;;4.50;;
23185;SDS011;11761;51.324;4.590;2022-12-07T06:50:28;8.60;;;3.97;;
23185;SDS011;11761;51.324;4.590;2022-12-07T06:52:54;5.60;;;3.47;;
23185;SDS011;11761;51.324;4.590;2022-12-07T06:55:20;5.90;;;3.55;;
23185;SDS011;11761;51.324;4.590;2022-12-07T06:57:46;6.97;;;3.13;;
23185;SDS011;11761;51.324;4.590;2022-12-07T07:00:12;8.30;;;3.38;;
23185;SDS011;11761;51.324;4.590;2022-12-07T07:02:39;7.65;;;3.28;;
23185;SDS011;11761;51.324;4.590;2022-12-07T07:05:05;7.53;;;3.75;;
23185;SDS011;11761;51.324;4.590;2022-12-07T07:07:31;6.43;;;3.70;;
23185;SDS011;11761;51.324;4.590;2022-12-07T07:09:58;8.23;;;3.42;;
23185;SDS011;11761;51.324;4.590;2022-12-07T07:12:24;10.18;;;3.85;;
23185;SDS011;11761;51.324;4.590;2022-12-07T07:14:50;8.00;;;3.50;;
23185;SDS011;11761;51.324;4.590;2022-12-07T07:17:16;6.43;;;3.35;;
23185;SDS011;11761;51.324;4.590;2022-12-07T07:19:42;6.18;;;3.25;;
23185;SDS011;11761;51.324;4.590;2022-12-07T07:22:08;6.78;;;3.08;;
23185;SDS011;11761;51.324;4.590;2022-12-07T07:24:35;6.53;;;2.72;;
23185;SDS011;11761;51.324;4.590;2022-12-07T07:27:01;4.82;;;2.60;;
23185;SDS011;11761;51.324;4.590;2022-12-07T07:29:27;6.05;;;2.65;;
23185;SDS011;11761;51.324;4.590;2022-12-07T07:31:53;5.82;;;3.22;;
23185;SDS011;11761;51.324;4.590;2022-12-07T07:34:19;5.80;;;2.65;;
23185;SDS011;11761;51.324;4.590;2022-12-07T07:36:45;6.20;;;3.42;;
23185;SDS011;11761;51.324;4.590;2022-12-07T07:39:11;6.53;;;3.55;;
23185;SDS011;11761;51.324;4.590;2022-12-07T07:41:40;5.97;;;3.20;;
23185;SDS011;11761;51.324;4.590;2022-12-07T07:44:07;4.65;;;2.60;;
23185;SDS011;11761;51.324;4.590;2022-12-07T07:46:33;7.43;;;3.35;;
23185;SDS011;11761;51.324;4.590;2022-12-07T07:48:59;6.45;;;2.75;;
23185;SDS011;11761;51.324;4.590;2022-12-07T07:51:25;4.30;;;2.30;;
23185;SDS011;11761;51.324;4.590;2022-12-07T07:53:51;4.40;;;2.53;;
23185;SDS011;11761;51.324;4.590;2022-12-07T07:56:17;8.52;;;3.30;;
23185;SDS011;11761;51.324;4.590;2022-12-07T07:58:43;5.70;;;3.03;;
23185;SDS011;11761;51.324;4.590;2022-12-07T08:01:09;5.28;;;2.88;;
23185;SDS011;11761;51.324;4.590;2022-12-07T08:03:35;5.70;;;2.78;;
23185;SDS011;11761;51.324;4.590;2022-12-07T08:06:02;7.85;;;3.03;;
23185;SDS011;11761;51.324;4.590;2022-12-07T08:08:29;7.10;;;3.78;;
23185;SDS011;11761;51.324;4.590;2022-12-07T08:10:55;11.63;;;5.72;;
23185;SDS011;11761;51.324;4.590;2022-12-07T08:13:21;11.20;;;5.63;;
23185;SDS011;11761;51.324;4.590;2022-12-07T08:15:47;11.55;;;5.45;;
23185;SDS011;11761;51.324;4.590;2022-12-07T08:18:14;10.15;;;4.97;;
23185;SDS011;11761;51.324;4.590;2022-12-07T08:20:41;10.45;;;4.95;;
23185;SDS011;11761;51.324;4.590;2022-12-07T08:23:07;11.07;;;5.75;;
23185;SDS011;11761;51.324;4.590;2022-12-07T08:25:35;13.55;;;5.80;;
23185;SDS011;11761;51.324;4.590;2022-12-07T08:28:02;12.50;;;6.82;;
23185;SDS011;11761;51.324;4.590;2022-12-07T08:30:28;12.73;;;7.00;;
23185;SDS011;11761;51.324;4.590;2022-12-07T08:32:58;16.33;;;6.80;;
23185;SDS011;11761;51.324;4.590;2022-12-07T08:35:26;10.43;;;5.95;;
23185;SDS011;11761;51.324;4.590;2022-12-07T08:37:52;13.43;;;5.68;;
23185;SDS011;11761;51.324;4.590;2022-12-07T08:40:18;9.48;;;4.63;;
23185;SDS011;11761;51.324;4.590;2022-12-07T08:42:49;9.65;;;4.95;;
23185;SDS011;11761;51.324;4.590;2022-12-07T08:45:16;13.20;;;5.35;;
23185;SDS011;11761;51.324;4.590;2022-12-07T08:48:06;11.45;;;5.13;;
23185;SDS011;11761;51.324;4.590;2022-12-07T08:50:36;8.05;;;3.88;;
23185;SDS011;11761;51.324;4.590;2022-12-07T08:53:03;12.13;;;4.40;;
23185;SDS011;11761;51.324;4.590;2022-12-07T08:55:30;10.05;;;3.92;;
23185;SDS011;11761;51.324;4.590;2022-12-07T08:57:58;10.50;;;4.68;;
23185;SDS011;11761;51.324;4.590;2022-12-07T09:00:25;8.50;;;4.07;;
23185;SDS011;11761;51.324;4.590;2022-12-07T09:02:53;10.18;;;4.22;;
23185;SDS011;11761;51.324;4.590;2022-12-07T09:05:20;9.13;;;3.75;;
23185;SDS011;11761;51.324;4.590;2022-12-07T09:07:48;8.70;;;4.00;;
23185;SDS011;11761;51.324;4.590;2022-12-07T09:10:17;8.10;;;4.15;;
23185;SDS011;11761;51.324;4.590;2022-12-07T09:12:43;10.48;;;4.45;;
23185;SDS011;11761;51.324;4.590;2022-12-07T09:15:09;8.93;;;3.97;;
23185;SDS011;11761;51.324;4.590;2022-12-07T09:17:35;7.57;;;4.45;;
23185;SDS011;11761;51.324;4.590;2022-12-07T09:20:03;6.95;;;3.90;;
23185;SDS011;11761;51.324;4.590;2022-12-07T09:22:31;9.73;;;4.07;;
23185;SDS011;11761;51.324;4.590;2022-12-07T09:24:58;8.85;;;4.38;;
23185;SDS011;11761;51.324;4.590;2022-12-07T09:27:25;6.20;;;3.30;;
23185;SDS011;11761;51.324;4.590;2022-12-07T09:29:52;9.43;;;3.53;;
23185;SDS011;11761;51.324;4.590;2022-12-07T09:32:18;7.45;;;4.45;;
23185;SDS011;11761;51.324;4.590;2022-12-07T09:34:45;7.00;;;3.78;;
23185;SDS011;11761;51.324;4.590;2022-12-07T09:37:11;8.68;;;4.18;;
23185;SDS011;11761;51.324;4.590;2022-12-07T09:39:37;7.78;;;4.13;;
23185;SDS011;11761;51.324;4.590;2022-12-07T09:42:04;7.20;;;3.80;;
23185;SDS011;11761;51.324;4.590;2022-12-07T09:44:32;6.68;;;3.45;;
23185;SDS011;11761;51.324;4.590;2022-12-07T09:46:59;10.48;;;4.13;;
23185;SDS011;11761;51.324;4.590;2022-12-07T09:49:27;7.57;;;4.30;;
23185;SDS011;11761;51.324;4.590;2022-12-07T09:52:00;10.65;;;4.53;;
23185;SDS011;11761;51.324;4.590;2022-12-07T09:54:34;9.38;;;3.83;;
23185;SDS011;11761;51.324;4.590;2022-12-07T09:57:04;7.45;;;3.80;;
23185;SDS011;11761;51.324;4.590;2022-12-07T09:59:30;8.15;;;4.20;;
23185;SDS011;11761;51.324;4.590;2022-12-07T10:01:56;6.88;;;4.03;;
23185;SDS011;11761;51.324;4.590;2022-12-07T10:05:03;5.95;;;3.88;;
23185;SDS011;11761;51.324;4.590;2022-12-07T10:07:31;4.97;;;3.33;;
23185;SDS011;11761;51.324;4.590;2022-12-07T10:09:57;7.10;;;2.85;;
23185;SDS011;11761;51.324;4.590;2022-12-07T10:12:23;6.45;;;3.22;;
23185;SDS011;11761;51.324;4.590;2022-12-07T10:14:57;8.52;;;2.97;;
23185;SDS011;11761;51.324;4.590;2022-12-07T10:17:29;5.65;;;2.75;;
23185;SDS011;11761;51.324;4.590;2022-12-07T10:20:14;6.13;;;2.70;;
23185;SDS011;11761;51.324;4.590;2022-12-07T10:22:56;4.53;;;2.65;;
23185;SDS011;11761;51.324;4.590;2022-12-07T10:25:27;4.70;;;2.72;;
23185;SDS011;11761;51.324;4.590;2022-12-07T10:30:33;3.65;;;2.22;;
23185;SDS011;11761;51.324;4.590;2022-12-07T10:36:00;4.03;;;2.50;;
23185;SDS011;11761;51.324;4.590;2022-12-07T10:38:43;5.10;;;2.38;;
23185;SDS011;11761;51.324;4.590;2022-12-07T10:41:11;6.43;;;2.38;;
23185;SDS011;11761;51.324;4.590;2022-12-07T10:43:37;3.22;;;2.13;;
23185;SDS011;11761;51.324;4.590;2022-12-07T10:55:16;4.05;;;2.67;;
23185;SDS011;11761;51.324;4.590;2022-12-07T11:00:31;6.65;;;3.25;;
23185;SDS011;11761;51.324;4.590;2022-12-07T11:03:53;7.70;;;3.65;;
23185;SDS011;11761;51.324;4.590;2022-12-07T11:06:06;5.43;;;2.70;;
23185;SDS011;11761;51.324;4.590;2022-12-07T11:11:33;5.85;;;3.50;;
23185;SDS011;11761;51.324;4.590;2022-12-07T11:17:04;4.97;;;3.05;;
23185;SDS011;11761;51.324;4.590;2022-12-07T11:30:55;5.95;;;2.60;;
23185;SDS011;11761;51.324;4.590;2022-12-07T11:33:53;4.35;;;2.22;;
23185;SDS011;11761;51.324;4.590;2022-12-07T11:41:52;4.43;;;2.03;;
23185;SDS011;11761;51.324;4.590;2022-12-07T11:47:16;5.60;;;1.90;;
23185;SDS011;11761;51.324;4.590;2022-12-07T11:49:51;4.28;;;2.08;;
23185;SDS011;11761;51.324;4.590;2022-12-07T11:58:11;4.95;;;2.40;;
23185;SDS011;11761;51.324;4.590;2022-12-07T12:00:38;3.88;;;2.30;;
23185;SDS011;11761;51.324;4.590;2022-12-07T12:03:09;4.72;;;2.28;;
23185;SDS011;11761;51.324;4.590;2022-12-07T12:05:41;3.85;;;2.08;;
23185;SDS011;11761;51.324;4.590;2022-12-07T12:22:30;5.00;;;2.03;;
23185;SDS011;11761;51.324;4.590;2022-12-07T12:24:48;3.35;;;1.73;;
23185;SDS011;11761;51.324;4.590;2022-12-07T12:27:38;5.22;;;1.70;;
23185;SDS011;11761;51.324;4.590;2022-12-07T12:30:06;3.50;;;1.55;;
23185;SDS011;11761;51.324;4.590;2022-12-07T12:32:49;2.67;;;1.75;;
23185;SDS011;11761;51.324;4.590;2022-12-07T12:35:29;4.13;;;2.00;;
23185;SDS011;11761;51.324;4.590;2022-12-07T12:40:53;3.58;;;1.80;;
23185;SDS011;11761;51.324;4.590;2022-12-07T12:49:41;4.65;;;1.70;;
23185;SDS011;11761;51.324;4.590;2022-12-07T12:51:46;1.80;;;1.50;;
23185;SDS011;11761;51.324;4.590;2022-12-07T12:54:20;2.80;;;1.10;;
23185;SDS011;11761;51.324;4.590;2022-12-07T12:56:51;1.13;;;0.90;;
23185;SDS011;11761;51.324;4.590;2022-12-07T13:05:14;1.63;;;0.90;;
23185;SDS011;11761;51.324;4.590;2022-12-07T13:20:54;1.45;;;0.90;;
23185;SDS011;11761;51.324;4.590;2022-12-07T13:23:35;3.90;;;1.42;;
23185;SDS011;11761;51.324;4.590;2022-12-07T13:28:49;1.60;;;1.30;;
23185;SDS011;11761;51.324;4.590;2022-12-07T13:31:39;2.28;;;1.35;;
23185;SDS011;11761;51.324;4.590;2022-12-07T13:39:59;2.45;;;1.20;;
23185;SDS011;11761;51.324;4.590;2022-12-07T13:42:37;2.55;;;1.38;;
23185;SDS011;11761;51.324;4.590;2022-12-07T13:45:24;2.75;;;1.20;;
23185;SDS011;11761;51.324;4.590;2022-12-07T13:48:18;3.30;;;1.48;;
23185;SDS011;11761;51.324;4.590;2022-12-07T13:50:58;3.20;;;1.30;;
23185;SDS011;11761;51.324;4.590;2022-12-07T13:53:26;2.50;;;1.20;;
23185;SDS011;11761;51.324;4.590;2022-12-07T13:55:56;1.52;;;1.20;;
23185;SDS011;11761;51.324;4.590;2022-12-07T13:58:23;1.85;;;1.27;;
23185;SDS011;11761;51.324;4.590;2022-12-07T14:00:51;2.00;;;1.30;;
23185;SDS011;11761;51.324;4.590;2022-12-07T14:05:44;1.40;;;1.00;;
23185;SDS011;11761;51.324;4.590;2022-12-07T14:16:54;3.58;;;1.25;;
23185;SDS011;11761;51.324;4.590;2022-12-07T14:19:56;1.10;;;0.90;;
23185;SDS011;11761;51.324;4.590;2022-12-07T14:22:33;1.35;;;0.95;;
23185;SDS011;11761;51.324;4.590;2022-12-07T14:25:13;2.40;;;1.05;;
23185;SDS011;11761;51.324;4.590;2022-12-07T14:28:00;2.70;;;1.00;;
23185;SDS011;11761;51.324;4.590;2022-12-07T14:30:30;2.13;;;1.20;;
23185;SDS011;11761;51.324;4.590;2022-12-07T14:33:00;2.03;;;1.00;;
23185;SDS011;11761;51.324;4.590;2022-12-07T14:35:30;1.95;;;1.15;;
23185;SDS011;11761;51.324;4.590;2022-12-07T14:37:58;1.80;;;0.68;;
23185;SDS011;11761;51.324;4.590;2022-12-07T14:40:25;1.95;;;0.93;;
23185;SDS011;11761;51.324;4.590;2022-12-07T14:43:03;0.77;;;0.60;;
23185;SDS011;11761;51.324;4.590;2022-12-07T14:45:32;1.33;;;0.70;;
23185;SDS011;11761;51.324;4.590;2022-12-07T14:47:58;1.17;;;0.60;;
23185;SDS011;11761;51.324;4.590;2022-12-07T14:50:24;2.42;;;0.98;;
23185;SDS011;11761;51.324;4.590;2022-12-07T14:52:52;1.23;;;0.63;;
23185;SDS011;11761;51.324;4.590;2022-12-07T14:55:25;0.75;;;0.43;;
23185;SDS011;11761;51.324;4.590;2022-12-07T14:57:54;3.45;;;0.80;;
23185;SDS011;11761;51.324;4.590;2022-12-07T15:00:22;2.22;;;0.70;;
23185;SDS011;11761;51.324;4.590;2022-12-07T15:02:51;2.00;;;0.70;;
23185;SDS011;11761;51.324;4.590;2022-12-07T15:05:17;1.75;;;0.90;;
23185;SDS011;11761;51.324;4.590;2022-12-07T15:07:45;1.60;;;0.90;;
23185;SDS011;11761;51.324;4.590;2022-12-07T15:12:46;2.30;;;1.23;;
23185;SDS011;11761;51.324;4.590;2022-12-07T15:15:12;2.95;;;1.20;;
23185;SDS011;11761;51.324;4.590;2022-12-07T15:17:39;2.33;;;1.10;;
23185;SDS011;11761;51.324;4.590;2022-12-07T15:20:05;4.00;;;1.20;;
23185;SDS011;11761;51.324;4.590;2022-12-07T15:22:36;2.70;;;1.38;;
23185;SDS011;11761;51.324;4.590;2022-12-07T15:25:02;2.17;;;1.20;;
23185;SDS011;11761;51.324;4.590;2022-12-07T15:27:30;4.03;;;1.38;;
23185;SDS011;11761;51.324;4.590;2022-12-07T15:29:57;2.42;;;1.13;;
23185;SDS011;11761;51.324;4.590;2022-12-07T15:32:23;3.88;;;1.83;;
23185;SDS011;11761;51.324;4.590;2022-12-07T15:34:49;2.28;;;1.00;;
23185;SDS011;11761;51.324;4.590;2022-12-07T15:37:15;3.30;;;1.35;;
23185;SDS011;11761;51.324;4.590;2022-12-07T15:39:41;2.85;;;1.35;;
23185;SDS011;11761;51.324;4.590;2022-12-07T15:42:08;6.88;;;1.70;;
23185;SDS011;11761;51.324;4.590;2022-12-07T15:44:34;3.40;;;1.55;;
23185;SDS011;11761;51.324;4.590;2022-12-07T15:47:18;5.22;;;2.05;;
23185;SDS011;11761;51.324;4.590;2022-12-07T15:49:45;5.32;;;1.40;;
23185;SDS011;11761;51.324;4.590;2022-12-07T15:52:11;4.63;;;2.05;;
23185;SDS011;11761;51.324;4.590;2022-12-07T15:54:37;4.40;;;2.72;;
23185;SDS011;11761;51.324;4.590;2022-12-07T15:57:03;5.40;;;2.35;;
23185;SDS011;11761;51.324;4.590;2022-12-07T15:59:29;3.33;;;1.75;;
23185;SDS011;11761;51.324;4.590;2022-12-07T16:01:55;3.33;;;1.92;;
23185;SDS011;11761;51.324;4.590;2022-12-07T16:04:22;4.78;;;2.70;;
23185;SDS011;11761;51.324;4.590;2022-12-07T16:06:48;4.93;;;3.13;;
23185;SDS011;11761;51.324;4.590;2022-12-07T16:09:16;6.70;;;3.97;;
23185;SDS011;11761;51.324;4.590;2022-12-07T16:11:42;7.03;;;3.47;;
23185;SDS011;11761;51.324;4.590;2022-12-07T16:14:08;7.22;;;3.42;;
23185;SDS011;11761;51.324;4.590;2022-12-07T16:16:35;5.47;;;3.22;;
23185;SDS011;11761;51.324;4.590;2022-12-07T16:19:01;8.55;;;4.70;;
23185;SDS011;11761;51.324;4.590;2022-12-07T16:21:28;6.88;;;3.67;;
23185;SDS011;11761;51.324;4.590;2022-12-07T16:23:56;7.78;;;3.67;;
23185;SDS011;11761;51.324;4.590;2022-12-07T16:26:24;8.10;;;3.53;;
23185;SDS011;11761;51.324;4.590;2022-12-07T16:28:50;3.63;;;2.22;;
23185;SDS011;11761;51.324;4.590;2022-12-07T16:31:18;4.68;;;2.70;;
23185;SDS011;11761;51.324;4.590;2022-12-07T16:33:46;4.70;;;2.72;;
23185;SDS011;11761;51.324;4.590;2022-12-07T16:36:13;4.43;;;2.67;;
23185;SDS011;11761;51.324;4.590;2022-12-07T16:38:41;4.60;;;2.90;;
23185;SDS011;11761;51.324;4.590;2022-12-07T16:41:08;7.32;;;3.03;;
23185;SDS011;11761;51.324;4.590;2022-12-07T16:43:35;7.75;;;3.13;;
23185;SDS011;11761;51.324;4.590;2022-12-07T16:46:02;6.68;;;3.15;;
23185;SDS011;11761;51.324;4.590;2022-12-07T16:48:28;6.68;;;2.95;;
23185;SDS011;11761;51.324;4.590;2022-12-07T16:50:54;7.05;;;3.85;;
23185;SDS011;11761;51.324;4.590;2022-12-07T16:53:21;6.25;;;3.97;;
23185;SDS011;11761;51.324;4.590;2022-12-07T16:55:49;11.90;;;5.60;;
23185;SDS011;11761;51.324;4.590;2022-12-07T16:58:15;9.88;;;5.47;;
23185;SDS011;11761;51.324;4.590;2022-12-07T17:00:42;10.60;;;5.47;;
23185;SDS011;11761;51.324;4.590;2022-12-07T17:03:10;8.43;;;4.55;;
23185;SDS011;11761;51.324;4.590;2022-12-07T17:05:38;6.93;;;4.30;;
23185;SDS011;11761;51.324;4.590;2022-12-07T17:08:05;7.95;;;4.43;;
23185;SDS011;11761;51.324;4.590;2022-12-07T17:10:32;8.32;;;3.25;;
23185;SDS011;11761;51.324;4.590;2022-12-07T17:13:01;15.00;;;8.55;;
23185;SDS011;11761;51.324;4.590;2022-12-07T17:15:28;7.22;;;4.90;;
23185;SDS011;11761;51.324;4.590;2022-12-07T17:17:55;7.53;;;3.63;;
23185;SDS011;11761;51.324;4.590;2022-12-07T17:20:23;5.70;;;3.28;;
23185;SDS011;11761;51.324;4.590;2022-12-07T17:22:51;8.50;;;3.90;;
23185;SDS011;11761;51.324;4.590;2022-12-07T17:25:18;5.28;;;2.80;;
23185;SDS011;11761;51.324;4.590;2022-12-07T17:27:45;6.03;;;3.13;;
23185;SDS011;11761;51.324;4.590;2022-12-07T17:30:12;6.15;;;4.13;;
23185;SDS011;11761;51.324;4.590;2022-12-07T17:32:39;6.97;;;3.60;;
23185;SDS011;11761;51.324;4.590;2022-12-07T17:35:05;5.85;;;3.53;;
23185;SDS011;11761;51.324;4.590;2022-12-07T17:37:32;5.93;;;3.35;;